MSC Lea — 9HA2639 — position and weather

sailwx.info

Track history (hours):
 
Tides and Currents Weather Stations Pressure Air Temp Water Temp Dewpoint Dewpoint Depression Visibility Wind Speed Wind Dir Waves Ship Positions

MSC Lea

Last reported at 2014-Sep-23 00:07 UTC. Time now 2014-Sep-23 02:18 UTC.
Position N 41°29' E 029°00'.

Length 217 m; draft 9.7 m.

Type: Ship (hazmat cat A). MMSI: 215101000.

Date/timePositionNaut miles runAvg speedWind from/ knotsBaromVisibWave heightAir tempDewpointWater temp
2014-Sep-23 00:07N 41°29' E 029°00'17 6.3
2014-Sep-22 21:24N 41°27' E 029°23'1113.2
2014-Sep-22 20:33N 41°32' E 029°36'39613.7
2014-Sep-21 15:33N 44°31' E 037°40'1211.6
2014-Sep-21 14:33N 44°40' E 037°50'5 4.5
2014-Sep-21 13:33N 44°44' E 037°47'0 0.0
2014-Sep-21 12:31N 44°44' E 037°47'0 0.0
2014-Sep-21 11:31N 44°44' E 037°47'0 0.0
2014-Sep-21 10:32N 44°44' E 037°47'0 0.0
2014-Sep-21 09:33N 44°44' E 037°47'0 0.0
2014-Sep-21 08:33N 44°44' E 037°47'0 0.0
2014-Sep-21 07:31N 44°44' E 037°47'0 0.0
2014-Sep-21 06:32N 44°44' E 037°47'0 0.0
2014-Sep-21 05:32N 44°44' E 037°47'0 0.0
2014-Sep-21 04:33N 44°44' E 037°47'0 0.0
2014-Sep-21 03:28N 44°44' E 037°47'0 0.0
2014-Sep-21 02:31N 44°44' E 037°47'0 0.0
2014-Sep-21 01:32N 44°44' E 037°47'0 0.0
2014-Sep-21 00:33N 44°44' E 037°47'0 0.0
2014-Sep-20 23:33N 44°44' E 037°47'0 0.0
2014-Sep-20 22:31N 44°44' E 037°47'0 0.0
2014-Sep-20 21:32N 44°44' E 037°47'0 0.0
2014-Sep-20 20:32N 44°44' E 037°47'0 0.0
2014-Sep-20 19:33N 44°44' E 037°47'0 0.0
2014-Sep-20 18:31N 44°44' E 037°47'0 0.0
2014-Sep-20 17:31N 44°44' E 037°47'0 0.0
2014-Sep-20 16:32N 44°44' E 037°47'0 0.0
2014-Sep-20 15:33N 44°44' E 037°47'0 0.0
2014-Sep-20 14:33N 44°44' E 037°47'0 0.0
2014-Sep-20 13:31N 44°44' E 037°47'0 0.0
2014-Sep-20 12:32N 44°44' E 037°47'0 0.0
2014-Sep-20 11:32N 44°44' E 037°47'0 0.0
2014-Sep-20 10:33N 44°44' E 037°47'0 0.0
2014-Sep-20 09:28N 44°44' E 037°47'0 0.0
2014-Sep-20 08:31N 44°44' E 037°47'0 0.0
2014-Sep-20 07:32N 44°44' E 037°47'0 0.0
2014-Sep-20 06:33N 44°44' E 037°47'0 0.0
2014-Sep-20 05:33N 44°44' E 037°47'0 0.0
2014-Sep-20 04:31N 44°44' E 037°47'0 0.0
2014-Sep-20 03:32N 44°44' E 037°47'0 0.0
2014-Sep-20 02:32N 44°44' E 037°47'0 0.0
2014-Sep-20 01:33N 44°44' E 037°47'0 0.0
2014-Sep-20 00:31N 44°44' E 037°47'0 0.0
2014-Sep-19 23:31N 44°44' E 037°47'0 0.0
2014-Sep-19 22:32N 44°44' E 037°47'0 0.0
2014-Sep-19 21:33N 44°44' E 037°47'0 0.0
2014-Sep-19 20:33N 44°44' E 037°47'0 0.0
2014-Sep-19 19:31N 44°44' E 037°47'0 0.0
2014-Sep-19 18:32N 44°44' E 037°47'0 0.3
2014-Sep-19 17:33N 44°43' E 037°47'6 6.1
2014-Sep-19 16:33N 44°38' E 037°51'8 8.1
2014-Sep-19 15:33N 44°33' E 037°42'7 6.5
2014-Sep-19 14:34N 44°35' E 037°33'1 0.9
2014-Sep-19 13:33N 44°34' E 037°34'1 0.9
2014-Sep-19 12:33N 44°34' E 037°36'1 1.0
2014-Sep-19 11:33N 44°33' E 037°37'1 1.1
2014-Sep-19 10:33N 44°32' E 037°38'1 1.2
2014-Sep-19 09:33N 44°32' E 037°39'1 1.2
2014-Sep-19 08:33N 44°31' E 037°41'1 1.2
2014-Sep-19 07:33N 44°31' E 037°42'1 1.1
2014-Sep-19 06:32N 44°30' E 037°44'1 1.0
2014-Sep-19 05:33N 44°30' E 037°45'1 1.0
2014-Sep-19 04:31N 44°30' E 037°46'1 0.9
2014-Sep-19 03:33N 44°29' E 037°48'1 0.8
2014-Sep-19 02:30N 44°29' E 037°49'1 0.8
2014-Sep-19 01:33N 44°29' E 037°50'1 0.7
2014-Sep-19 00:23N 44°29' E 037°51'1 0.6
2014-Sep-18 23:32N 44°28' E 037°51'3 1.0
2014-Sep-18 20:03N 44°25' E 037°54'0 0.9
2014-Sep-18 19:33N 44°25' E 037°54'7 6.6
2014-Sep-18 18:33N 44°28' E 037°46'5 5.5
2014-Sep-18 17:33N 44°29' E 037°39'2 1.8
2014-Sep-18 16:33N 44°29' E 037°41'1 1.3
2014-Sep-18 15:33N 44°28' E 037°43'1 1.3
2014-Sep-18 14:33N 44°28' E 037°45'1 1.4
2014-Sep-18 13:32N 44°27' E 037°46'1 1.3
2014-Sep-18 12:33N 44°27' E 037°48'1 1.3
2014-Sep-18 11:33N 44°26' E 037°50'1 1.1
2014-Sep-18 10:33N 44°26' E 037°51'1 1.1
2014-Sep-18 09:34N 44°25' E 037°52'1 1.1
2014-Sep-18 08:33N 44°25' E 037°54'1 0.9
2014-Sep-18 07:33N 44°25' E 037°55'3 3.5
2014-Sep-18 06:33N 44°24' E 037°50'1111.1
2014-Sep-18 05:33N 44°28' E 037°35'5 5.5
2014-Sep-18 04:33N 44°31' E 037°29'3 2.6
2014-Sep-18 03:33N 44°30' E 037°32'2 2.1
2014-Sep-18 02:32N 44°29' E 037°35'2 2.2
2014-Sep-18 01:33N 44°29' E 037°38'2 1.5
2014-Sep-18 00:33N 44°28' E 037°40'1 1.5
2014-Sep-17 23:33N 44°28' E 037°42'1 1.4
2014-Sep-17 22:33N 44°28' E 037°44'1 1.5
2014-Sep-17 21:33N 44°27' E 037°46'5 1.8
2014-Sep-17 18:34N 44°27' E 037°53'8 7.7
2014-Sep-17 17:33N 44°26' E 037°43'2311.1
2014-Sep-17 15:29N 44°18' E 037°12'37211.6
2014-Sep-16 07:20N 41°27' E 029°42'1012.7
2014-Sep-16 06:34N 41°22' E 029°30'3210.3
2014-Sep-16 03:30N 41°00' E 028°60'1213.0
2014-Sep-16 02:33N 40°50' E 028°50'5 4.5
2014-Sep-16 01:30N 40°48' E 028°45'0 0.4
2014-Sep-16 00:33N 40°47' E 028°46'0 0.4
2014-Sep-15 23:33N 40°47' E 028°46'1 0.6
2014-Sep-15 22:31N 40°47' E 028°47'0 0.5
2014-Sep-15 21:32N 40°46' E 028°47'1 0.8
2014-Sep-15 20:32N 40°47' E 028°47'1 1.0
2014-Sep-15 19:23N 40°48' E 028°47'1 0.7
2014-Sep-15 18:21N 40°48' E 028°47'1 0.7
2014-Sep-15 17:27N 40°47' E 028°48'1 0.7
2014-Sep-15 16:32N 40°47' E 028°49'1 0.7
2014-Sep-15 15:33N 40°47' E 028°50'1 0.9
2014-Sep-15 14:33N 40°47' E 028°51'0 0.4
2014-Sep-15 13:33N 40°47' E 028°51'10 8.8
2014-Sep-15 12:22N 40°54' E 028°41'3 0.2
2014-Sep-14 18:33N 40°57' E 028°41'1 0.1
2014-Sep-14 04:33N 40°56' E 028°40'8 7.7
2014-Sep-14 03:33N 40°50' E 028°34'17011.9
2014-Sep-13 13:13N 39°00' E 025°44'1013.9
2014-Sep-13 12:30N 38°50' E 025°45'1313.9
2014-Sep-13 11:33N 38°37' E 025°46'2914.3
2014-Sep-13 09:32N 38°08' E 025°48'3014.9
2014-Sep-13 07:32N 37°39' E 025°52'1414.1
2014-Sep-13 06:33N 37°25' E 025°55'1413.9
2014-Sep-13 05:33N 37°12' E 026°03'1414.0
2014-Sep-13 04:33N 36°60' E 026°10'1313.4
2014-Sep-13 03:33N 36°51' E 026°22'1414.1
2014-Sep-13 02:33N 36°40' E 026°34'1514.3
2014-Sep-13 01:32N 36°29' E 026°46'1414.1
2014-Sep-13 00:33N 36°18' E 026°57'  
Track history (hours):
 
Tides and Currents Weather Stations Pressure Air Temp Water Temp Dewpoint Dewpoint Depression Visibility Wind Speed Wind Dir Waves Ship Positions

MSC Lea

Last reported at 2014-Sep-23 00:07 UTC. Time now 2014-Sep-23 02:18 UTC.
Position N 41°29' E 029°00'.

Length 217 m; draft 9.7 m.

Type: Ship (hazmat cat A). MMSI: 215101000.

Date/timePositionNaut miles runAvg speedWind from/ knotsBaromVisibWave heightAir tempDewpointWater temp
2014-Sep-23 00:07N 41°29' E 029°00'17 6.3
2014-Sep-22 21:24N 41°27' E 029°23'1113.2
2014-Sep-22 20:33N 41°32' E 029°36'39613.7
2014-Sep-21 15:33N 44°31' E 037°40'1211.6
2014-Sep-21 14:33N 44°40' E 037°50'5 4.5
2014-Sep-21 13:33N 44°44' E 037°47'0 0.0
2014-Sep-21 12:31N 44°44' E 037°47'0 0.0
2014-Sep-21 11:31N 44°44' E 037°47'0 0.0
2014-Sep-21 10:32N 44°44' E 037°47'0 0.0
2014-Sep-21 09:33N 44°44' E 037°47'0 0.0
2014-Sep-21 08:33N 44°44' E 037°47'0 0.0
2014-Sep-21 07:31N 44°44' E 037°47'0 0.0
2014-Sep-21 06:32N 44°44' E 037°47'0 0.0
2014-Sep-21 05:32N 44°44' E 037°47'0 0.0
2014-Sep-21 04:33N 44°44' E 037°47'0 0.0
2014-Sep-21 03:28N 44°44' E 037°47'0 0.0
2014-Sep-21 02:31N 44°44' E 037°47'0 0.0
2014-Sep-21 01:32N 44°44' E 037°47'0 0.0
2014-Sep-21 00:33N 44°44' E 037°47'0 0.0
2014-Sep-20 23:33N 44°44' E 037°47'0 0.0
2014-Sep-20 22:31N 44°44' E 037°47'0 0.0
2014-Sep-20 21:32N 44°44' E 037°47'0 0.0
2014-Sep-20 20:32N 44°44' E 037°47'0 0.0
2014-Sep-20 19:33N 44°44' E 037°47'0 0.0
2014-Sep-20 18:31N 44°44' E 037°47'0 0.0
2014-Sep-20 17:31N 44°44' E 037°47'0 0.0
2014-Sep-20 16:32N 44°44' E 037°47'0 0.0
2014-Sep-20 15:33N 44°44' E 037°47'0 0.0
2014-Sep-20 14:33N 44°44' E 037°47'0 0.0
2014-Sep-20 13:31N 44°44' E 037°47'0 0.0
2014-Sep-20 12:32N 44°44' E 037°47'0 0.0
2014-Sep-20 11:32N 44°44' E 037°47'0 0.0
2014-Sep-20 10:33N 44°44' E 037°47'0 0.0
2014-Sep-20 09:28N 44°44' E 037°47'0 0.0
2014-Sep-20 08:31N 44°44' E 037°47'0 0.0
2014-Sep-20 07:32N 44°44' E 037°47'0 0.0
2014-Sep-20 06:33N 44°44' E 037°47'0 0.0
2014-Sep-20 05:33N 44°44' E 037°47'0 0.0
2014-Sep-20 04:31N 44°44' E 037°47'0 0.0
2014-Sep-20 03:32N 44°44' E 037°47'0 0.0
2014-Sep-20 02:32N 44°44' E 037°47'0 0.0
2014-Sep-20 01:33N 44°44' E 037°47'0 0.0
2014-Sep-20 00:31N 44°44' E 037°47'0 0.0
2014-Sep-19 23:31N 44°44' E 037°47'0 0.0
2014-Sep-19 22:32N 44°44' E 037°47'0 0.0
2014-Sep-19 21:33N 44°44' E 037°47'0 0.0
2014-Sep-19 20:33N 44°44' E 037°47'0 0.0
2014-Sep-19 19:31N 44°44' E 037°47'0 0.0
2014-Sep-19 18:32N 44°44' E 037°47'0 0.3
2014-Sep-19 17:33N 44°43' E 037°47'6 6.1
2014-Sep-19 16:33N 44°38' E 037°51'8 8.1
2014-Sep-19 15:33N 44°33' E 037°42'7 6.5
2014-Sep-19 14:34N 44°35' E 037°33'1 0.9
2014-Sep-19 13:33N 44°34' E 037°34'1 0.9
2014-Sep-19 12:33N 44°34' E 037°36'1 1.0
2014-Sep-19 11:33N 44°33' E 037°37'1 1.1
2014-Sep-19 10:33N 44°32' E 037°38'1 1.2
2014-Sep-19 09:33N 44°32' E 037°39'1 1.2
2014-Sep-19 08:33N 44°31' E 037°41'1 1.2
2014-Sep-19 07:33N 44°31' E 037°42'1 1.1
2014-Sep-19 06:32N 44°30' E 037°44'1 1.0
2014-Sep-19 05:33N 44°30' E 037°45'1 1.0
2014-Sep-19 04:31N 44°30' E 037°46'1 0.9
2014-Sep-19 03:33N 44°29' E 037°48'1 0.8
2014-Sep-19 02:30N 44°29' E 037°49'1 0.8
2014-Sep-19 01:33N 44°29' E 037°50'1 0.7
2014-Sep-19 00:23N 44°29' E 037°51'1 0.6
2014-Sep-18 23:32N 44°28' E 037°51'3 1.0
2014-Sep-18 20:03N 44°25' E 037°54'0 0.9
2014-Sep-18 19:33N 44°25' E 037°54'7 6.6
2014-Sep-18 18:33N 44°28' E 037°46'5 5.5
2014-Sep-18 17:33N 44°29' E 037°39'2 1.8
2014-Sep-18 16:33N 44°29' E 037°41'1 1.3
2014-Sep-18 15:33N 44°28' E 037°43'1 1.3
2014-Sep-18 14:33N 44°28' E 037°45'1 1.4
2014-Sep-18 13:32N 44°27' E 037°46'1 1.3
2014-Sep-18 12:33N 44°27' E 037°48'1 1.3
2014-Sep-18 11:33N 44°26' E 037°50'1 1.1
2014-Sep-18 10:33N 44°26' E 037°51'1 1.1
2014-Sep-18 09:34N 44°25' E 037°52'1 1.1
2014-Sep-18 08:33N 44°25' E 037°54'1 0.9
2014-Sep-18 07:33N 44°25' E 037°55'3 3.5
2014-Sep-18 06:33N 44°24' E 037°50'1111.1
2014-Sep-18 05:33N 44°28' E 037°35'5 5.5
2014-Sep-18 04:33N 44°31' E 037°29'3 2.6
2014-Sep-18 03:33N 44°30' E 037°32'2 2.1
2014-Sep-18 02:32N 44°29' E 037°35'2 2.2
2014-Sep-18 01:33N 44°29' E 037°38'2 1.5
2014-Sep-18 00:33N 44°28' E 037°40'1 1.5
2014-Sep-17 23:33N 44°28' E 037°42'1 1.4
2014-Sep-17 22:33N 44°28' E 037°44'1 1.5
2014-Sep-17 21:33N 44°27' E 037°46'5 1.8
2014-Sep-17 18:34N 44°27' E 037°53'8 7.7
2014-Sep-17 17:33N 44°26' E 037°43'2311.1
2014-Sep-17 15:29N 44°18' E 037°12'37211.6
2014-Sep-16 07:20N 41°27' E 029°42'1012.7
2014-Sep-16 06:34N 41°22' E 029°30'3210.3
2014-Sep-16 03:30N 41°00' E 028°60'1213.0
2014-Sep-16 02:33N 40°50' E 028°50'5 4.5
2014-Sep-16 01:30N 40°48' E 028°45'0 0.4
2014-Sep-16 00:33N 40°47' E 028°46'0 0.4
2014-Sep-15 23:33N 40°47' E 028°46'1 0.6
2014-Sep-15 22:31N 40°47' E 028°47'0 0.5
2014-Sep-15 21:32N 40°46' E 028°47'1 0.8
2014-Sep-15 20:32N 40°47' E 028°47'1 1.0
2014-Sep-15 19:23N 40°48' E 028°47'1 0.7
2014-Sep-15 18:21N 40°48' E 028°47'1 0.7
2014-Sep-15 17:27N 40°47' E 028°48'1 0.7
2014-Sep-15 16:32N 40°47' E 028°49'1 0.7
2014-Sep-15 15:33N 40°47' E 028°50'1 0.9
2014-Sep-15 14:33N 40°47' E 028°51'0 0.4
2014-Sep-15 13:33N 40°47' E 028°51'10 8.8
2014-Sep-15 12:22N 40°54' E 028°41'3 0.2
2014-Sep-14 18:33N 40°57' E 028°41'1 0.1
2014-Sep-14 04:33N 40°56' E 028°40'8 7.7
2014-Sep-14 03:33N 40°50' E 028°34'17011.9
2014-Sep-13 13:13N 39°00' E 025°44'1013.9
2014-Sep-13 12:30N 38°50' E 025°45'1313.9
2014-Sep-13 11:33N 38°37' E 025°46'2914.3
2014-Sep-13 09:32N 38°08' E 025°48'3014.9
2014-Sep-13 07:32N 37°39' E 025°52'1414.1
2014-Sep-13 06:33N 37°25' E 025°55'1413.9
2014-Sep-13 05:33N 37°12' E 026°03'1414.0
2014-Sep-13 04:33N 36°60' E 026°10'1313.4
2014-Sep-13 03:33N 36°51' E 026°22'1414.1
2014-Sep-13 02:33N 36°40' E 026°34'1514.3
2014-Sep-13 01:32N 36°29' E 026°46'1414.1
2014-Sep-13 00:33N 36°18' E 026°57'  

Dump ship's entire track history